createdAt,value
2023-01-09T00:01:18.658Z,82.90
2023-01-09T00:03:54.496Z,90.90
2023-01-09T00:06:25.407Z,94.30
2023-01-09T00:08:56.770Z,99.90
2023-01-09T00:11:27.600Z,99.00
2023-01-09T00:13:58.455Z,99.90
2023-01-09T00:16:32.208Z,99.90
2023-01-09T00:19:08.177Z,99.90
2023-01-09T00:21:39.563Z,99.90
2023-01-09T00:24:11.179Z,99.90
2023-01-09T00:26:45.001Z,99.90
2023-01-09T00:29:15.849Z,99.90
2023-01-09T00:31:46.605Z,96.00
2023-01-09T00:34:19.935Z,99.20
2023-01-09T00:36:55.075Z,99.50
2023-01-09T00:39:25.968Z,99.90
2023-01-09T00:41:58.806Z,98.70
2023-01-09T00:44:34.324Z,97.70
2023-01-09T00:47:11.061Z,99.60
2023-01-09T00:49:45.727Z,99.90
2023-01-09T00:52:17.696Z,99.70
2023-01-09T00:54:49.048Z,99.90
2023-01-09T00:57:21.091Z,98.30
2023-01-09T00:59:52.100Z,99.90
2023-01-09T01:02:23.674Z,99.90
2023-01-09T01:05:11.372Z,99.90
2023-01-09T01:07:43.331Z,99.90
2023-01-09T01:10:16.654Z,99.90
2023-01-09T01:12:47.638Z,99.90
2023-01-09T01:15:19.305Z,99.90
2023-01-09T01:17:50.494Z,99.90
2023-01-09T01:20:24.344Z,99.90
2023-01-09T01:22:55.175Z,99.90
2023-01-09T01:25:28.083Z,99.90
2023-01-09T01:27:58.831Z,99.90
2023-01-09T01:30:31.520Z,99.90
2023-01-09T01:33:02.700Z,99.90
2023-01-09T01:35:38.772Z,99.90
2023-01-09T01:38:09.586Z,99.90
2023-01-09T01:40:40.878Z,99.90
2023-01-09T01:43:14.967Z,99.90
2023-01-09T01:45:46.967Z,99.90
2023-01-09T01:48:22.340Z,99.90
2023-01-09T01:51:01.345Z,99.90
2023-01-09T01:53:36.353Z,99.90
2023-01-09T01:56:13.511Z,99.90
2023-01-09T01:58:48.296Z,99.90
2023-01-09T02:01:23.454Z,99.90
2023-01-09T02:03:58.130Z,99.90
2023-01-09T02:06:32.007Z,99.90
2023-01-09T02:09:04.709Z,99.90
2023-01-09T02:11:36.094Z,99.90
2023-01-09T02:14:06.923Z,99.90
2023-01-09T02:16:52.041Z,99.90
2023-01-09T02:19:49.167Z,99.90
2023-01-09T02:22:38.808Z,99.90
2023-01-09T02:25:43.434Z,99.90
2023-01-09T02:28:41.165Z,99.90
2023-01-09T02:31:18.241Z,99.90
2023-01-09T02:34:00.199Z,99.90
2023-01-09T02:36:39.427Z,99.90
2023-01-09T02:39:25.000Z,99.90
2023-01-09T02:42:04.264Z,99.90
2023-01-09T02:44:38.755Z,99.90
2023-01-09T02:47:39.920Z,99.90
2023-01-09T02:50:19.959Z,99.90
2023-01-09T02:53:24.887Z,99.90
2023-01-09T02:56:09.871Z,99.90
2023-01-09T02:58:59.797Z,99.90
2023-01-09T03:01:40.045Z,99.90
2023-01-09T03:04:20.567Z,99.90
2023-01-09T03:07:00.209Z,99.90
2023-01-09T03:09:34.570Z,99.90
2023-01-09T03:12:12.159Z,99.90
2023-01-09T03:14:47.047Z,99.90
2023-01-09T03:17:25.347Z,99.90
2023-01-09T03:19:57.099Z,99.90
2023-01-09T03:22:30.492Z,99.90
2023-01-09T03:25:01.388Z,99.90
2023-01-09T03:27:32.308Z,99.90
2023-01-09T03:30:03.056Z,99.90
2023-01-09T03:32:33.841Z,99.90
2023-01-09T03:35:04.567Z,99.90
2023-01-09T03:37:38.114Z,99.90
2023-01-09T03:40:11.358Z,99.90
2023-01-09T03:42:45.116Z,99.90
2023-01-09T03:45:16.476Z,99.90
2023-01-09T03:47:47.207Z,99.90
2023-01-09T03:50:18.589Z,99.90
2023-01-09T03:52:52.326Z,99.90
2023-01-09T03:55:23.341Z,99.90
2023-01-09T03:57:54.819Z,99.90
2023-01-09T04:00:25.950Z,99.90
2023-01-09T04:02:56.723Z,99.90
2023-01-09T04:05:29.873Z,99.90
2023-01-09T04:08:03.165Z,99.90
2023-01-09T04:10:34.078Z,99.90
2023-01-09T04:13:07.440Z,99.90
2023-01-09T04:15:39.806Z,99.90
2023-01-09T04:18:13.767Z,99.90
2023-01-09T04:20:44.823Z,99.90
2023-01-09T04:23:18.642Z,99.90
2023-01-09T04:25:49.657Z,99.90
2023-01-09T04:28:20.685Z,99.90
2023-01-09T04:30:51.414Z,99.90
2023-01-09T04:33:22.196Z,99.90
2023-01-09T04:35:52.931Z,99.90
2023-01-09T04:38:27.165Z,99.90
2023-01-09T04:40:58.119Z,99.90
2023-01-09T04:43:29.065Z,99.90
2023-01-09T04:45:59.973Z,99.90
2023-01-09T04:48:30.837Z,99.00
2023-01-09T04:51:01.541Z,97.80
2023-01-09T04:53:34.948Z,97.30
2023-01-09T04:56:05.723Z,97.10
2023-01-09T04:58:36.440Z,95.80
2023-01-09T05:01:07.408Z,94.60
2023-01-09T05:03:40.461Z,94.70
2023-01-09T05:06:11.284Z,95.30
2023-01-09T05:08:44.740Z,94.60
2023-01-09T05:11:18.418Z,95.30
2023-01-09T05:13:49.293Z,95.70
2023-01-09T05:16:20.355Z,95.50
2023-01-09T05:18:56.453Z,95.50
2023-01-09T05:21:27.386Z,96.50
2023-01-09T05:24:00.681Z,96.50
2023-01-09T05:26:31.793Z,96.00
2023-01-09T05:29:02.681Z,95.90
2023-01-09T05:31:34.972Z,95.80
2023-01-09T05:34:07.729Z,96.10
2023-01-09T05:36:41.705Z,96.60
2023-01-09T05:39:15.244Z,96.90
2023-01-09T05:41:46.102Z,97.70
2023-01-09T05:44:25.608Z,97.80
2023-01-09T05:46:56.383Z,97.40
2023-01-09T05:49:27.189Z,96.70
2023-01-09T05:51:58.212Z,96.20
2023-01-09T05:54:31.672Z,95.50
2023-01-09T05:57:02.522Z,97.10
2023-01-09T05:59:33.285Z,96.50
2023-01-09T06:02:04.016Z,95.40
2023-01-09T06:04:35.028Z,94.80
2023-01-09T06:07:08.388Z,93.70
2023-01-09T06:09:42.046Z,92.70
2023-01-09T06:12:12.854Z,91.40
2023-01-09T06:14:43.616Z,90.30
2023-01-09T06:17:17.189Z,90.30
2023-01-09T06:19:48.175Z,85.30
2023-01-09T06:22:18.949Z,83.60
2023-01-09T06:24:54.564Z,85.70
2023-01-09T06:27:25.702Z,81.30
2023-01-09T06:29:56.475Z,76.30
2023-01-09T06:32:27.176Z,76.90
2023-01-09T06:34:57.910Z,77.40
2023-01-09T06:37:28.611Z,76.30
2023-01-09T06:40:02.333Z,76.70
2023-01-09T06:42:33.176Z,74.50
2023-01-09T06:45:04.048Z,73.80
2023-01-09T06:47:34.972Z,75.90
2023-01-09T06:50:05.759Z,77.70
2023-01-09T06:52:39.889Z,77.30
2023-01-09T06:55:13.515Z,77.70
2023-01-09T06:57:44.379Z,77.00
2023-01-09T07:00:16.264Z,78.80
2023-01-09T07:02:47.072Z,79.90
2023-01-09T07:05:18.064Z,82.00
2023-01-09T07:07:48.767Z,85.10
2023-01-09T07:10:22.257Z,86.10
2023-01-09T07:12:53.014Z,84.90
2023-01-09T07:15:24.855Z,86.30
2023-01-09T07:17:55.668Z,87.70
2023-01-09T07:20:26.443Z,90.10
2023-01-09T07:22:57.323Z,90.30
2023-01-09T07:25:30.700Z,90.30
2023-01-09T07:28:01.478Z,90.00
2023-01-09T07:30:33.522Z,90.30
2023-01-09T07:33:04.551Z,91.50
2023-01-09T07:35:35.367Z,90.30
2023-01-09T07:38:06.057Z,90.70
2023-01-09T07:40:39.437Z,90.30
2023-01-09T07:43:10.563Z,90.20
2023-01-09T07:45:44.142Z,89.50
2023-01-09T07:48:14.882Z,88.60
2023-01-09T07:50:45.750Z,88.60
2023-01-09T07:53:16.779Z,88.30
2023-01-09T07:55:50.344Z,87.50
2023-01-09T07:58:23.428Z,86.90
2023-01-09T08:00:54.392Z,85.10
2023-01-09T08:03:26.823Z,87.80
2023-01-09T08:05:59.468Z,87.90
2023-01-09T08:08:31.162Z,88.60
2023-01-09T08:11:04.598Z,90.30
2023-01-09T08:13:35.299Z,90.30
2023-01-09T08:16:06.204Z,90.30
2023-01-09T08:18:36.938Z,90.00
2023-01-09T08:21:07.867Z,90.30
2023-01-09T08:23:41.729Z,88.40
2023-01-09T08:26:15.236Z,90.50
2023-01-09T08:28:46.118Z,89.00
2023-01-09T08:31:17.204Z,90.30
2023-01-09T08:33:47.938Z,90.00
2023-01-09T08:36:18.903Z,90.10
2023-01-09T08:38:49.721Z,90.30
2023-01-09T08:41:35.632Z,90.00
2023-01-09T08:44:19.006Z,89.50
2023-01-09T08:47:02.230Z,90.20
2023-01-09T08:49:34.257Z,91.10
2023-01-09T08:52:05.709Z,93.00
2023-01-09T08:54:36.954Z,94.00
2023-01-09T08:57:10.598Z,94.50
2023-01-09T08:59:41.352Z,94.30
2023-01-09T09:02:12.211Z,94.20
2023-01-09T09:04:43.318Z,93.10
2023-01-09T09:07:14.099Z,93.30
2023-01-09T09:09:44.912Z,94.30
2023-01-09T09:12:18.364Z,93.70
2023-01-09T09:15:01.660Z,94.20
2023-01-09T09:17:32.839Z,93.70
2023-01-09T09:20:03.723Z,94.80
2023-01-09T09:22:36.922Z,94.20
2023-01-09T09:25:08.435Z,93.90
2023-01-09T09:27:42.186Z,94.70
2023-01-09T09:30:14.864Z,94.90
2023-01-09T09:32:59.742Z,94.00
2023-01-09T09:35:32.462Z,94.40
2023-01-09T09:38:05.755Z,94.60
2023-01-09T09:41:04.729Z,95.60
2023-01-09T09:44:11.186Z,98.00
2023-01-09T09:46:49.313Z,99.90
2023-01-09T09:49:28.839Z,99.90
2023-01-09T09:52:07.894Z,99.90
2023-01-09T09:54:43.730Z,99.90
2023-01-09T09:57:20.271Z,99.90
2023-01-09T09:59:54.566Z,99.90
2023-01-09T10:02:30.471Z,99.90
2023-01-09T10:05:07.629Z,99.90
2023-01-09T10:07:44.283Z,99.90
2023-01-09T10:10:22.043Z,99.90
2023-01-09T10:12:57.173Z,99.90
2023-01-09T10:15:41.132Z,99.90
2023-01-09T10:18:23.355Z,99.90
2023-01-09T10:20:59.488Z,99.90
2023-01-09T10:24:02.064Z,99.90
2023-01-09T10:27:11.466Z,99.90
2023-01-09T10:29:56.673Z,99.90
2023-01-09T10:32:45.041Z,99.90
2023-01-09T10:35:46.912Z,99.90
2023-01-09T10:38:24.080Z,99.90
2023-01-09T10:41:03.147Z,99.90
2023-01-09T10:43:42.274Z,99.90
2023-01-09T10:46:21.411Z,99.90
2023-01-09T10:48:59.112Z,99.90
2023-01-09T10:51:37.683Z,99.90
2023-01-09T10:54:21.711Z,99.90
2023-01-09T10:56:58.045Z,99.90
2023-01-09T10:59:30.750Z,99.90
2023-01-09T11:02:01.794Z,99.90
2023-01-09T11:04:40.007Z,99.90
2023-01-09T11:07:21.505Z,99.90
2023-01-09T11:10:03.031Z,99.90
2023-01-09T11:12:36.107Z,99.90
2023-01-09T11:15:31.609Z,99.90
2023-01-09T11:18:24.872Z,99.90
2023-01-09T11:21:14.748Z,99.00
2023-01-09T11:23:45.520Z,96.50
2023-01-09T11:26:26.851Z,93.70
2023-01-09T11:29:13.695Z,92.00
2023-01-09T11:31:46.773Z,89.50
2023-01-09T11:34:21.709Z,86.70
2023-01-09T11:36:56.601Z,82.40
2023-01-09T11:39:32.782Z,78.90
2023-01-09T11:42:05.992Z,79.20
2023-01-09T11:44:39.879Z,73.80
2023-01-09T11:47:29.774Z,70.90
2023-01-09T11:50:11.626Z,70.70
2023-01-09T11:52:44.981Z,67.50
2023-01-09T11:55:19.208Z,65.20
2023-01-09T11:57:53.372Z,62.30
2023-01-09T12:00:28.902Z,62.20
2023-01-09T12:03:18.780Z,59.60
2023-01-09T12:05:58.406Z,60.90
2023-01-09T12:08:44.103Z,58.70
2023-01-09T12:11:37.412Z,56.30
2023-01-09T12:14:29.802Z,57.00
2023-01-09T12:17:20.354Z,55.30
2023-01-09T12:20:05.519Z,58.70
2023-01-09T12:22:44.408Z,59.60
2023-01-09T12:25:35.231Z,60.20
2023-01-09T12:28:25.781Z,60.60
2023-01-09T12:31:10.478Z,62.20
2023-01-09T12:33:52.315Z,70.50
2023-01-09T12:36:34.067Z,71.30
2023-01-09T12:39:12.250Z,74.20
2023-01-09T12:42:12.705Z,79.70
2023-01-09T12:44:54.188Z,96.30
2023-01-09T12:47:45.918Z,95.30
2023-01-09T12:50:41.762Z,95.80
2023-01-09T12:53:23.796Z,96.50
2023-01-09T12:56:00.891Z,99.90
2023-01-09T12:58:41.462Z,99.90
2023-01-09T13:01:19.535Z,99.90
2023-01-09T13:03:55.038Z,99.90
2023-01-09T13:06:27.304Z,99.90
2023-01-09T13:09:12.253Z,99.90
2023-01-09T13:11:48.445Z,99.90
2023-01-09T13:14:24.389Z,99.90
2023-01-09T13:16:59.846Z,99.90
2023-01-09T13:19:35.663Z,99.90
2023-01-09T13:22:08.304Z,99.90
2023-01-09T13:24:44.607Z,99.90
2023-01-09T13:27:20.560Z,99.90
2023-01-09T13:29:55.641Z,99.90
2023-01-09T13:32:40.980Z,99.90
2023-01-09T13:35:16.512Z,99.90
2023-01-09T13:37:53.815Z,99.90
2023-01-09T13:40:33.046Z,99.90
2023-01-09T13:43:07.666Z,99.90
2023-01-09T13:45:56.698Z,99.90
2023-01-09T13:48:44.203Z,99.90
2023-01-09T13:52:00.708Z,99.90
2023-01-09T13:55:01.761Z,99.90
2023-01-09T13:57:35.529Z,99.90
2023-01-09T14:00:44.586Z,99.90
2023-01-09T14:03:26.115Z,99.90
2023-01-09T14:06:24.400Z,99.90
2023-01-09T14:09:18.142Z,99.90
2023-01-09T14:11:49.911Z,99.90
2023-01-09T14:14:29.013Z,99.90
2023-01-09T14:17:03.388Z,99.90
2023-01-09T14:19:38.504Z,99.90
2023-01-09T14:22:29.579Z,99.90
2023-01-09T14:25:06.729Z,99.90
2023-01-09T14:28:09.145Z,99.90
2023-01-09T14:30:41.703Z,99.90
2023-01-09T14:33:28.574Z,98.10
2023-01-09T14:36:11.663Z,98.80
2023-01-09T14:38:49.268Z,98.50
2023-01-09T14:41:45.553Z,98.00
2023-01-09T14:44:29.517Z,97.50
2023-01-09T14:47:07.273Z,98.70
2023-01-09T14:49:43.693Z,99.90
2023-01-09T14:52:24.068Z,97.70
2023-01-09T14:55:01.264Z,97.80
2023-01-09T14:57:38.799Z,97.90
2023-01-09T15:00:20.120Z,98.40
2023-01-09T15:02:56.694Z,98.80
2023-01-09T15:05:31.672Z,99.40
2023-01-09T15:08:06.191Z,99.90
2023-01-09T15:10:40.913Z,99.90
2023-01-09T15:13:20.875Z,99.90
2023-01-09T15:15:52.623Z,99.90
2023-01-09T15:18:27.950Z,99.90
2023-01-09T15:21:02.619Z,99.90
2023-01-09T15:23:34.284Z,99.90
2023-01-09T15:26:28.006Z,99.90
2023-01-09T15:29:06.374Z,99.20
2023-01-09T15:31:37.379Z,99.90
2023-01-09T15:34:08.434Z,99.90
2023-01-09T15:36:40.904Z,99.90
2023-01-09T15:39:13.083Z,99.90
2023-01-09T15:42:01.903Z,99.90
2023-01-09T15:44:36.247Z,99.90
2023-01-09T15:47:10.419Z,98.80
2023-01-09T15:49:41.333Z,98.60
2023-01-09T15:52:15.327Z,98.80
2023-01-09T15:54:49.092Z,98.70
2023-01-09T15:57:37.788Z,98.80
2023-01-09T16:00:39.468Z,99.20
2023-01-09T16:03:21.186Z,98.90
2023-01-09T16:05:56.184Z,98.70
2023-01-09T16:08:30.005Z,99.50
2023-01-09T16:11:05.252Z,99.90
2023-01-09T16:13:44.492Z,99.90
2023-01-09T16:16:16.535Z,99.90
2023-01-09T16:18:56.078Z,99.90
2023-01-09T16:21:35.523Z,99.90
2023-01-09T16:24:27.674Z,99.90
2023-01-09T16:27:14.109Z,99.90
2023-01-09T16:29:57.394Z,99.90
2023-01-09T16:32:31.451Z,99.90
2023-01-09T16:35:06.090Z,99.90
2023-01-09T16:37:37.823Z,99.90
2023-01-09T16:40:29.855Z,99.90
2023-01-09T16:43:03.825Z,99.90
2023-01-09T16:45:39.279Z,99.90
2023-01-09T16:48:19.449Z,99.90
2023-01-09T16:50:50.635Z,99.90
2023-01-09T16:53:25.688Z,99.90
2023-01-09T16:55:57.298Z,99.90
2023-01-09T16:58:30.192Z,99.90
2023-01-09T17:01:03.782Z,99.90
2023-01-09T17:03:37.503Z,99.90
2023-01-09T17:06:09.958Z,99.90
2023-01-09T17:08:40.997Z,99.90
2023-01-09T17:11:21.326Z,99.90
2023-01-09T17:13:52.492Z,99.90
2023-01-09T17:16:26.473Z,99.90
2023-01-09T17:18:57.448Z,99.90
2023-01-09T17:21:30.963Z,99.90
2023-01-09T17:24:15.207Z,99.90
2023-01-09T17:27:01.348Z,99.90
2023-01-09T17:29:32.941Z,99.90
2023-01-09T17:32:06.720Z,99.90
2023-01-09T17:34:37.705Z,99.90
2023-01-09T17:37:09.862Z,99.90
2023-01-09T17:39:40.645Z,99.90
2023-01-09T17:42:11.628Z,99.90
2023-01-09T17:44:44.065Z,99.90
2023-01-09T17:47:18.505Z,99.90
2023-01-09T17:49:51.976Z,99.90
2023-01-09T17:52:25.267Z,99.90
2023-01-09T17:54:56.155Z,99.90
2023-01-09T17:57:27.397Z,99.90
2023-01-09T18:00:00.464Z,99.90
2023-01-09T18:02:34.087Z,99.90
2023-01-09T18:05:05.024Z,99.90
2023-01-09T18:07:35.832Z,99.90
2023-01-09T18:10:07.196Z,99.90
2023-01-09T18:12:38.260Z,99.90
2023-01-09T18:15:10.080Z,99.90
2023-01-09T18:17:43.506Z,99.90
2023-01-09T18:20:15.235Z,99.90
2023-01-09T18:22:46.129Z,99.90
2023-01-09T18:25:17.153Z,99.90
2023-01-09T18:27:47.907Z,99.90
2023-01-09T18:30:18.751Z,99.90
2023-01-09T18:32:54.672Z,99.90
2023-01-09T18:35:25.458Z,99.90
2023-01-09T18:37:56.254Z,99.90
2023-01-09T18:40:27.185Z,99.90
2023-01-09T18:42:58.571Z,99.90
2023-01-09T18:45:29.561Z,99.90
2023-01-09T18:48:03.037Z,99.90
2023-01-09T18:50:34.727Z,99.90
2023-01-09T18:53:08.298Z,99.90
2023-01-09T18:55:40.707Z,99.90
2023-01-09T18:58:11.897Z,99.90
2023-01-09T19:00:43.972Z,99.90
2023-01-09T19:03:19.234Z,99.90
2023-01-09T19:05:50.089Z,99.90
2023-01-09T19:08:22.744Z,99.90
2023-01-09T19:10:55.158Z,99.90
2023-01-09T19:13:26.389Z,99.90
2023-01-09T19:15:58.480Z,99.90
2023-01-09T19:18:35.389Z,99.90
2023-01-09T19:21:13.205Z,99.90
2023-01-09T19:23:45.255Z,99.90
2023-01-09T19:26:20.410Z,99.90
2023-01-09T19:28:55.602Z,99.90
2023-01-09T19:31:31.503Z,99.90
2023-01-09T19:34:06.187Z,99.90
2023-01-09T19:36:37.119Z,99.90
2023-01-09T19:39:10.802Z,99.90
2023-01-09T19:41:42.045Z,99.90
2023-01-09T19:44:13.725Z,99.90
2023-01-09T19:46:44.599Z,99.90
2023-01-09T19:49:18.048Z,99.90
2023-01-09T19:51:52.402Z,99.90
2023-01-09T19:54:23.598Z,99.90
2023-01-09T19:56:54.729Z,99.90
2023-01-09T19:59:28.056Z,99.90
2023-01-09T20:02:03.649Z,99.90
2023-01-09T20:04:44.106Z,99.90
2023-01-09T20:07:15.036Z,99.90
2023-01-09T20:09:45.934Z,99.90
2023-01-09T20:12:17.224Z,99.90
2023-01-09T20:14:47.993Z,99.90
2023-01-09T20:17:24.757Z,99.90
2023-01-09T20:20:04.226Z,99.90
2023-01-09T20:22:39.941Z,99.90
2023-01-09T20:25:12.755Z,99.90
2023-01-09T20:27:43.482Z,99.90
2023-01-09T20:30:21.289Z,99.90
2023-01-09T20:32:52.702Z,99.90
2023-01-09T20:35:26.325Z,99.90
2023-01-09T20:37:57.234Z,99.90
2023-01-09T20:40:27.985Z,99.90
2023-01-09T20:42:58.760Z,99.90
2023-01-09T20:45:29.910Z,99.90
2023-01-09T20:48:00.683Z,99.90
2023-01-09T20:50:36.149Z,99.90
2023-01-09T20:53:08.002Z,99.90
2023-01-09T20:55:38.791Z,99.90
2023-01-09T20:58:09.563Z,99.90
2023-01-09T21:00:40.406Z,99.90
2023-01-09T21:03:15.374Z,99.90
2023-01-09T21:05:48.826Z,99.90
2023-01-09T21:08:19.718Z,99.90
2023-01-09T21:10:50.436Z,99.90
2023-01-09T21:13:21.260Z,99.90
2023-01-09T21:15:52.273Z,99.90
2023-01-09T21:18:23.138Z,99.90
2023-01-09T21:20:56.600Z,99.90
2023-01-09T21:23:29.312Z,99.90
2023-01-09T21:26:01.240Z,99.90
2023-01-09T21:28:33.115Z,99.90
2023-01-09T21:31:03.833Z,99.90
2023-01-09T21:33:34.582Z,99.90
2023-01-09T21:36:09.369Z,99.90
2023-01-09T21:38:40.543Z,99.90
2023-01-09T21:41:24.150Z,99.90
2023-01-09T21:44:07.573Z,99.90
2023-01-09T21:46:50.880Z,99.90
2023-01-09T21:49:26.069Z,99.90
2023-01-09T21:52:03.465Z,99.90
2023-01-09T21:54:35.012Z,99.90
2023-01-09T21:57:06.478Z,99.90
2023-01-09T21:59:37.616Z,99.90
2023-01-09T22:02:08.432Z,99.90
2023-01-09T22:04:39.280Z,99.90
2023-01-09T22:07:12.858Z,99.90
2023-01-09T22:09:44.581Z,99.90
2023-01-09T22:12:15.704Z,99.90
2023-01-09T22:14:49.107Z,99.90
2023-01-09T22:17:19.869Z,99.90
2023-01-09T22:19:50.996Z,99.90
2023-01-09T22:22:24.402Z,99.90
2023-01-09T22:24:55.246Z,99.90
2023-01-09T22:27:25.979Z,99.90
2023-01-09T22:29:57.219Z,99.90
2023-01-09T22:32:27.959Z,99.90
2023-01-09T22:34:58.722Z,99.90
2023-01-09T22:37:32.059Z,99.90
2023-01-09T22:40:03.373Z,99.90
2023-01-09T22:42:34.066Z,99.90
2023-01-09T22:45:04.847Z,99.90
2023-01-09T22:47:35.572Z,99.90
2023-01-09T22:50:06.969Z,99.90
2023-01-09T22:52:40.419Z,99.90
2023-01-09T22:55:12.244Z,99.90
2023-01-09T22:57:42.996Z,99.90
2023-01-09T23:00:15.377Z,99.90
2023-01-09T23:02:46.284Z,99.90
2023-01-09T23:05:19.657Z,99.90
2023-01-09T23:07:52.932Z,99.90
2023-01-09T23:10:23.764Z,99.90
2023-01-09T23:12:54.573Z,99.90
2023-01-09T23:15:25.422Z,99.90
2023-01-09T23:17:56.127Z,99.90
2023-01-09T23:20:27.050Z,99.90
2023-01-09T23:23:00.385Z,99.90
2023-01-09T23:25:31.347Z,99.90
2023-01-09T23:28:02.208Z,99.90
2023-01-09T23:30:32.907Z,99.90
2023-01-09T23:33:03.710Z,99.90
2023-01-09T23:35:37.456Z,99.90
2023-01-09T23:38:11.548Z,99.90
2023-01-09T23:40:44.024Z,99.90
2023-01-09T23:43:13.486Z,99.90
2023-01-09T23:45:46.095Z,99.90
2023-01-09T23:48:19.027Z,99.90
2023-01-09T23:50:52.618Z,99.90
2023-01-09T23:53:26.295Z,99.90
2023-01-09T23:55:57.494Z,99.90
2023-01-09T23:58:28.609Z,99.90
